createdAt,value
2023-02-18T00:00:28.078Z,97831.09
2023-02-18T00:02:54.619Z,97828.98
2023-02-18T00:05:22.286Z,97824.64
2023-02-18T00:07:49.057Z,97828.14
2023-02-18T00:10:16.281Z,97827.52
2023-02-18T00:12:43.380Z,97824.59
2023-02-18T00:15:10.290Z,97823.95
2023-02-18T00:17:37.244Z,97823.73
2023-02-18T00:20:06.186Z,97824.44
2023-02-18T00:22:33.293Z,97831.15
2023-02-18T00:24:59.821Z,97830.98
2023-02-18T00:27:26.370Z,97831.48
2023-02-18T00:29:53.105Z,97834.41
2023-02-18T00:32:19.592Z,97834.72
2023-02-18T00:34:46.058Z,97837.70
2023-02-18T00:37:13.765Z,97844.95
2023-02-18T00:39:40.395Z,97846.30
2023-02-18T00:42:07.250Z,97846.15
2023-02-18T00:44:33.773Z,97845.95
2023-02-18T00:47:00.312Z,97845.29
2023-02-18T00:49:26.858Z,97844.06
2023-02-18T00:51:53.325Z,97851.67
2023-02-18T00:54:19.897Z,97845.75
2023-02-18T00:56:46.828Z,97851.02
2023-02-18T00:59:13.274Z,97845.65
2023-02-18T01:01:40.016Z,97851.23
2023-02-18T01:04:06.609Z,97850.34
2023-02-18T01:06:33.259Z,97846.47
2023-02-18T01:08:59.810Z,97856.32
2023-02-18T01:11:26.596Z,97854.77
2023-02-18T01:13:53.415Z,97846.65
2023-02-18T01:16:20.506Z,97855.27
2023-02-18T01:18:47.533Z,97851.81
2023-02-18T01:21:14.169Z,97856.56
2023-02-18T01:23:41.709Z,97849.65
2023-02-18T01:26:09.657Z,97850.02
2023-02-18T01:28:36.938Z,97843.25
2023-02-18T01:31:11.534Z,97838.50
2023-02-18T01:33:38.999Z,97836.77
2023-02-18T01:36:07.397Z,97840.01
2023-02-18T01:38:34.470Z,97839.75
2023-02-18T01:41:01.014Z,97837.23
2023-02-18T01:43:27.763Z,97834.34
2023-02-18T01:45:57.608Z,97828.89
2023-02-18T01:48:34.342Z,97837.19
2023-02-18T01:51:27.543Z,97834.00
2023-02-18T01:54:06.308Z,97832.83
2023-02-18T01:56:39.681Z,97827.63
2023-02-18T01:59:11.584Z,97824.16
2023-02-18T02:01:41.933Z,97824.98
2023-02-18T02:04:08.493Z,97838.41
2023-02-18T02:06:35.192Z,97841.64
2023-02-18T02:09:06.922Z,97844.14
2023-02-18T02:11:45.841Z,97838.84
2023-02-18T02:14:50.779Z,97834.81
2023-02-18T02:17:28.400Z,97860.36
2023-02-18T02:20:36.153Z,97923.16
2023-02-18T02:23:08.642Z,97921.44
2023-02-18T02:25:50.596Z,97922.82
2023-02-18T02:29:22.352Z,97914.77
2023-02-18T02:32:05.805Z,97934.23
2023-02-18T02:34:51.456Z,97924.42
2023-02-18T02:37:20.796Z,97923.45
2023-02-18T02:40:09.552Z,97918.40
2023-02-18T02:43:20.665Z,97916.02
2023-02-18T02:46:07.295Z,97924.42
2023-02-18T02:48:49.240Z,97921.58
2023-02-18T02:51:28.384Z,97922.97
2023-02-18T02:53:55.030Z,97923.17
2023-02-18T02:56:24.647Z,97928.73
2023-02-18T02:59:04.442Z,97924.10
2023-02-18T03:01:47.943Z,97919.79
2023-02-18T03:04:42.129Z,97926.40
2023-02-18T03:07:21.334Z,97919.20
2023-02-18T03:10:26.954Z,97928.63
2023-02-18T03:13:15.206Z,97937.13
2023-02-18T03:15:59.945Z,97955.05
2023-02-18T03:18:41.327Z,97962.56
2023-02-18T03:21:13.912Z,97960.48
2023-02-18T03:24:32.901Z,97961.33
2023-02-18T03:27:05.563Z,97958.91
2023-02-18T03:29:33.641Z,97959.83
2023-02-18T03:32:05.643Z,97962.20
2023-02-18T03:34:39.538Z,97969.74
2023-02-18T03:37:07.446Z,97969.14
2023-02-18T03:39:36.003Z,97980.60
2023-02-18T03:42:02.550Z,97974.55
2023-02-18T03:44:31.256Z,97984.29
2023-02-18T03:46:58.084Z,97981.62
2023-02-18T03:49:24.639Z,97980.17
2023-02-18T03:51:51.148Z,97984.80
2023-02-18T03:54:17.601Z,97992.90
2023-02-18T03:56:44.361Z,97994.97
2023-02-18T03:59:12.115Z,97999.46
2023-02-18T04:01:39.052Z,97997.12
2023-02-18T04:04:06.169Z,98007.02
2023-02-18T04:06:32.776Z,98011.77
2023-02-18T04:08:59.229Z,98011.71
2023-02-18T04:11:25.950Z,98008.17
2023-02-18T04:13:52.435Z,98008.93
2023-02-18T04:16:22.644Z,98007.86
2023-02-18T04:18:49.171Z,98010.26
2023-02-18T04:21:15.866Z,98011.17
2023-02-18T04:23:42.348Z,98013.29
2023-02-18T04:26:09.169Z,98018.11
2023-02-18T04:28:36.044Z,98008.18
2023-02-18T04:31:02.664Z,98010.60
2023-02-18T04:33:29.754Z,98010.92
2023-02-18T04:35:56.384Z,98014.16
2023-02-18T04:38:23.426Z,98009.98
2023-02-18T04:40:49.986Z,98012.44
2023-02-18T04:43:16.833Z,98007.06
2023-02-18T04:45:43.378Z,98002.52
2023-02-18T04:48:10.121Z,98005.23
2023-02-18T04:50:36.878Z,98002.69
2023-02-18T04:53:03.448Z,97999.56
2023-02-18T04:55:29.958Z,98000.95
2023-02-18T04:57:56.801Z,98004.63
2023-02-18T05:00:23.438Z,98004.81
2023-02-18T05:02:50.118Z,98003.95
2023-02-18T05:05:16.680Z,98002.82
2023-02-18T05:07:43.496Z,98005.73
2023-02-18T05:10:14.530Z,98004.08
2023-02-18T05:12:41.322Z,98006.41
2023-02-18T05:15:08.864Z,98001.88
2023-02-18T05:17:35.583Z,98007.02
2023-02-18T05:20:02.133Z,98013.85
2023-02-18T05:22:28.562Z,98021.24
2023-02-18T05:24:55.213Z,98028.15
2023-02-18T05:27:21.815Z,98030.59
2023-02-18T05:29:49.075Z,98038.65
2023-02-18T05:32:15.538Z,98036.82
2023-02-18T05:34:42.294Z,98041.36
2023-02-18T05:37:09.367Z,98051.71
2023-02-18T05:39:36.412Z,98042.77
2023-02-18T05:42:03.460Z,98050.45
2023-02-18T05:44:30.213Z,98045.17
2023-02-18T05:47:02.293Z,98042.83
2023-02-18T05:49:30.301Z,98047.63
2023-02-18T05:51:57.492Z,98051.10
2023-02-18T05:54:24.171Z,98040.98
2023-02-18T05:56:51.816Z,98044.83
2023-02-18T05:59:18.980Z,98044.23
2023-02-18T06:01:46.769Z,98036.84
2023-02-18T06:04:13.901Z,98043.19
2023-02-18T06:06:40.930Z,98046.05
2023-02-18T06:09:08.519Z,98050.77
2023-02-18T06:11:35.825Z,98044.13
2023-02-18T06:14:03.161Z,98058.23
2023-02-18T06:16:30.211Z,98068.55
2023-02-18T06:18:56.864Z,98066.33
2023-02-18T06:21:23.491Z,98065.61
2023-02-18T06:23:50.431Z,98067.20
2023-02-18T06:26:16.931Z,98072.20
2023-02-18T06:28:43.510Z,98077.96
2023-02-18T06:31:10.124Z,98074.86
2023-02-18T06:33:36.794Z,98075.20
2023-02-18T06:36:09.084Z,98069.87
2023-02-18T06:38:36.121Z,98062.65
2023-02-18T06:41:03.561Z,98059.55
2023-02-18T06:43:30.536Z,98050.70
2023-02-18T06:45:57.282Z,98053.84
2023-02-18T06:48:24.072Z,98054.59
2023-02-18T06:50:51.067Z,98054.67
2023-02-18T06:53:17.589Z,98060.19
2023-02-18T06:55:44.886Z,98057.85
2023-02-18T06:58:12.793Z,98060.77
2023-02-18T07:00:39.618Z,98070.61
2023-02-18T07:03:07.371Z,98069.67
2023-02-18T07:05:34.731Z,98067.64
2023-02-18T07:08:01.701Z,98075.67
2023-02-18T07:10:28.510Z,98070.65
2023-02-18T07:12:55.068Z,98077.83
2023-02-18T07:15:21.611Z,98072.23
2023-02-18T07:17:48.459Z,98079.60
2023-02-18T07:20:14.910Z,98080.42
2023-02-18T07:22:41.641Z,98087.16
2023-02-18T07:25:08.525Z,98085.55
2023-02-18T07:27:35.134Z,98089.09
2023-02-18T07:30:01.726Z,98078.38
2023-02-18T07:32:28.190Z,98081.20
2023-02-18T07:34:54.774Z,98084.01
2023-02-18T07:37:21.411Z,98082.22
2023-02-18T07:39:47.850Z,98086.03
2023-02-18T07:42:14.902Z,98091.55
2023-02-18T07:44:42.326Z,98085.88
2023-02-18T07:47:12.783Z,98086.38
2023-02-18T07:49:39.660Z,98083.92
2023-02-18T07:52:06.103Z,98088.53
2023-02-18T07:54:32.964Z,98081.94
2023-02-18T07:56:59.579Z,98083.25
2023-02-18T07:59:26.115Z,98086.63
2023-02-18T08:01:52.679Z,98080.23
2023-02-18T08:04:19.201Z,98078.30
2023-02-18T08:06:49.047Z,98077.54
2023-02-18T08:09:16.939Z,98078.14
2023-02-18T08:11:43.839Z,98074.31
2023-02-18T08:14:10.397Z,98080.88
2023-02-18T08:16:37.303Z,98083.06
2023-02-18T08:19:04.483Z,98084.73
2023-02-18T08:21:31.552Z,98080.41
2023-02-18T08:23:59.545Z,98082.54
2023-02-18T08:26:26.272Z,98083.66
2023-02-18T08:28:52.838Z,98082.41
2023-02-18T08:31:29.067Z,98089.61
2023-02-18T08:33:56.843Z,98085.64
2023-02-18T08:36:23.720Z,98088.29
2023-02-18T08:38:50.654Z,98087.66
2023-02-18T08:41:17.585Z,98095.34
2023-02-18T08:43:45.071Z,98104.85
2023-02-18T08:46:15.970Z,98107.77
2023-02-18T08:48:44.553Z,98098.27
2023-02-18T08:51:13.719Z,98094.45
2023-02-18T08:53:40.614Z,98095.73
2023-02-18T08:56:09.595Z,98095.32
2023-02-18T08:58:37.536Z,98095.25
2023-02-18T09:01:10.304Z,98100.49
2023-02-18T09:03:37.369Z,98091.50
2023-02-18T09:06:04.762Z,98094.30
2023-02-18T09:08:31.378Z,98086.98
2023-02-18T09:10:59.820Z,98088.27
2023-02-18T09:13:26.928Z,98087.30
2023-02-18T09:16:02.047Z,98087.27
2023-02-18T09:18:29.006Z,98089.71
2023-02-18T09:20:57.530Z,98085.38
2023-02-18T09:23:30.189Z,98093.76
2023-02-18T09:25:57.074Z,98088.89
2023-02-18T09:28:24.105Z,98077.48
2023-02-18T09:30:51.246Z,98068.13
2023-02-18T09:33:18.894Z,98071.20
2023-02-18T09:35:46.761Z,98073.06
2023-02-18T09:38:16.262Z,98075.44
2023-02-18T09:40:48.613Z,98077.11
2023-02-18T09:43:33.949Z,98077.63
2023-02-18T09:46:02.168Z,98070.86
2023-02-18T09:48:32.900Z,98064.98
2023-02-18T09:51:00.160Z,98064.80
2023-02-18T09:53:27.119Z,98059.05
2023-02-18T09:55:56.622Z,98055.52
2023-02-18T09:58:30.628Z,98056.58
2023-02-18T10:01:15.467Z,98056.58
2023-02-18T10:03:42.380Z,98063.10
2023-02-18T10:06:26.257Z,98067.07
2023-02-18T10:08:55.148Z,98064.09
2023-02-18T10:11:42.958Z,98059.65
2023-02-18T10:14:12.483Z,98054.44
2023-02-18T10:16:40.335Z,98057.48
2023-02-18T10:19:38.148Z,98054.90
2023-02-18T10:22:08.171Z,98047.52
2023-02-18T10:24:43.217Z,98051.23
2023-02-18T10:27:15.061Z,98044.75
2023-02-18T10:29:41.734Z,98041.35
2023-02-18T10:32:24.007Z,98030.40
2023-02-18T10:35:15.824Z,98033.39
2023-02-18T10:37:42.272Z,98036.06
2023-02-18T10:40:33.736Z,98025.80
2023-02-18T10:43:06.318Z,98017.79
2023-02-18T10:45:57.672Z,98011.83
2023-02-18T10:48:42.625Z,98010.94
2023-02-18T10:51:16.897Z,98011.34
2023-02-18T10:53:46.716Z,98016.03
2023-02-18T10:56:34.535Z,98000.40
2023-02-18T10:59:22.650Z,97992.52
2023-02-18T11:02:17.530Z,98000.71
2023-02-18T11:04:46.330Z,98000.09
2023-02-18T11:07:16.678Z,98012.23
2023-02-18T11:09:49.952Z,98007.35
2023-02-18T11:12:29.142Z,98008.08
2023-02-18T11:15:19.687Z,98002.83
2023-02-18T11:17:49.113Z,97991.52
2023-02-18T11:20:24.430Z,97987.61
2023-02-18T11:22:51.394Z,97984.23
2023-02-18T11:25:24.952Z,97982.98
2023-02-18T11:27:56.496Z,97980.32
2023-02-18T11:30:32.458Z,97982.80
2023-02-18T11:33:03.406Z,97977.69
2023-02-18T11:35:32.162Z,97975.23
2023-02-18T11:38:01.046Z,97973.34
2023-02-18T11:40:34.405Z,97965.36
2023-02-18T11:43:17.756Z,97958.58
2023-02-18T11:45:44.770Z,97956.04
2023-02-18T11:48:17.835Z,97957.56
2023-02-18T11:50:49.885Z,97949.80
2023-02-18T11:53:26.734Z,97946.07
2023-02-18T11:55:56.360Z,97946.00
2023-02-18T11:58:23.079Z,97948.58
2023-02-18T12:00:51.111Z,97939.89
2023-02-18T12:03:52.097Z,97938.46
2023-02-18T12:06:24.907Z,97948.25
2023-02-18T12:08:58.186Z,97945.35
2023-02-18T12:11:33.147Z,97946.08
2023-02-18T12:14:00.254Z,97946.48
2023-02-18T12:16:46.022Z,97944.05
2023-02-18T12:19:44.095Z,97937.86
2023-02-18T12:22:26.905Z,97926.55
2023-02-18T12:25:03.729Z,97918.23
2023-02-18T12:27:42.460Z,97920.14
2023-02-18T12:30:46.413Z,97917.45
2023-02-18T12:33:29.422Z,97916.27
2023-02-18T12:36:17.347Z,97912.11
2023-02-18T12:38:54.521Z,97913.36
2023-02-18T12:41:47.121Z,97911.02
2023-02-18T12:44:45.384Z,97911.17
2023-02-18T12:47:42.460Z,97902.11
2023-02-18T12:50:33.324Z,97898.05
2023-02-18T12:53:38.973Z,97893.62
2023-02-18T12:56:26.831Z,97889.50
2023-02-18T12:59:18.110Z,97880.77
2023-02-18T13:01:59.902Z,97878.08
2023-02-18T13:04:42.024Z,97870.73
2023-02-18T13:07:33.735Z,97872.52
2023-02-18T13:10:34.589Z,97874.85
2023-02-18T13:13:12.025Z,97869.86
2023-02-18T13:15:50.216Z,97864.13
2023-02-18T13:18:37.398Z,97856.52
2023-02-18T13:21:07.606Z,97852.46
2023-02-18T13:24:06.366Z,97850.48
2023-02-18T13:26:34.631Z,97851.06
2023-02-18T13:29:27.679Z,97845.63
2023-02-18T13:32:12.782Z,97832.17
2023-02-18T13:34:56.908Z,97817.35
2023-02-18T13:37:51.112Z,97814.28
2023-02-18T13:40:21.728Z,97813.98
2023-02-18T13:42:52.948Z,97810.92
2023-02-18T13:45:23.821Z,97805.55
2023-02-18T13:47:51.508Z,97805.63
2023-02-18T13:50:24.482Z,97806.23
2023-02-18T13:53:11.205Z,97803.09
2023-02-18T13:55:57.965Z,97799.98
2023-02-18T13:58:31.531Z,97794.47
2023-02-18T14:01:06.106Z,97787.18
2023-02-18T14:03:32.670Z,97777.03
2023-02-18T14:05:59.844Z,97774.24
2023-02-18T14:08:33.755Z,97769.99
2023-02-18T14:11:12.216Z,97759.86
2023-02-18T14:13:43.222Z,97758.25
2023-02-18T14:16:11.360Z,97758.32
2023-02-18T14:18:40.937Z,97754.03
2023-02-18T14:21:13.194Z,97756.23
2023-02-18T14:23:39.715Z,97744.86
2023-02-18T14:26:21.852Z,97741.83
2023-02-18T14:28:48.470Z,97731.53
2023-02-18T14:31:15.234Z,97722.75
2023-02-18T14:33:59.689Z,97719.59
2023-02-18T14:36:48.197Z,97705.39
2023-02-18T14:39:30.213Z,97694.65
2023-02-18T14:42:18.496Z,97686.66
2023-02-18T14:45:17.237Z,97678.99
2023-02-18T14:47:49.888Z,97666.92
2023-02-18T14:50:19.825Z,97659.77
2023-02-18T14:53:05.392Z,97649.05
2023-02-18T14:55:39.256Z,97645.17
2023-02-18T14:58:32.263Z,97638.27
2023-02-18T15:01:06.372Z,97625.52
2023-02-18T15:03:33.640Z,97631.80
2023-02-18T15:06:00.286Z,97620.65
2023-02-18T15:08:27.033Z,97614.81
2023-02-18T15:10:58.841Z,97616.36
2023-02-18T15:13:27.897Z,97617.19
2023-02-18T15:16:02.645Z,97609.79
2023-02-18T15:18:36.849Z,97609.23
2023-02-18T15:21:09.606Z,97603.98
2023-02-18T15:23:40.261Z,97600.07
2023-02-18T15:26:08.016Z,97597.23
2023-02-18T15:28:43.389Z,97595.06
2023-02-18T15:31:14.956Z,97590.73
2023-02-18T15:33:48.163Z,97581.05
2023-02-18T15:36:15.073Z,97581.70
2023-02-18T15:38:41.724Z,97576.31
2023-02-18T15:41:14.106Z,97566.50
2023-02-18T15:44:11.732Z,97566.05
2023-02-18T15:46:39.870Z,97562.61
2023-02-18T15:49:08.234Z,97564.96
2023-02-18T15:51:35.099Z,97554.00
2023-02-18T15:54:03.474Z,97545.33
2023-02-18T15:56:37.738Z,97538.24
2023-02-18T15:59:33.316Z,97533.75
2023-02-18T16:02:08.751Z,97531.05
2023-02-18T16:04:41.013Z,97530.48
2023-02-18T16:07:30.147Z,97525.45
2023-02-18T16:10:15.628Z,97523.66
2023-02-18T16:12:51.178Z,97515.70
2023-02-18T16:15:27.605Z,97519.73
2023-02-18T16:17:54.515Z,97509.41
2023-02-18T16:20:36.579Z,97507.98
2023-02-18T16:23:11.395Z,97499.95
2023-02-18T16:25:47.109Z,97492.10
2023-02-18T16:28:27.298Z,97487.34
2023-02-18T16:30:54.214Z,97493.64
2023-02-18T16:33:20.707Z,97489.20
2023-02-18T16:35:50.294Z,97490.46
2023-02-18T16:38:20.733Z,97478.60
2023-02-18T16:40:48.091Z,97483.46
2023-02-18T16:43:17.678Z,97490.44
2023-02-18T16:45:50.508Z,97485.13
2023-02-18T16:48:24.343Z,97483.29
2023-02-18T16:50:51.412Z,97478.15
2023-02-18T16:53:18.322Z,97479.44
2023-02-18T16:55:44.723Z,97471.79
2023-02-18T16:58:11.612Z,97469.77
2023-02-18T17:00:39.647Z,97472.10
2023-02-18T17:03:06.433Z,97467.56
2023-02-18T17:05:34.835Z,97470.63
2023-02-18T17:08:18.253Z,97469.40
2023-02-18T17:10:47.775Z,97466.25
2023-02-18T17:13:17.213Z,97462.10
2023-02-18T17:15:47.544Z,97455.41
2023-02-18T17:18:14.756Z,97452.59
2023-02-18T17:20:41.398Z,97451.23
2023-02-18T17:23:08.176Z,97452.98
2023-02-18T17:25:38.420Z,97449.54
2023-02-18T17:28:05.740Z,97442.35
2023-02-18T17:30:36.416Z,97438.20
2023-02-18T17:33:06.242Z,97432.02
2023-02-18T17:35:33.366Z,97431.25
2023-02-18T17:37:59.981Z,97439.38
2023-02-18T17:40:28.410Z,97447.02
2023-02-18T17:42:55.804Z,97454.12
2023-02-18T17:45:33.357Z,97463.02
2023-02-18T17:48:01.605Z,97470.73
2023-02-18T17:50:30.271Z,97478.48
2023-02-18T17:52:57.034Z,97479.27
2023-02-18T17:55:23.987Z,97481.39
2023-02-18T17:57:51.953Z,97477.16
2023-02-18T18:00:22.155Z,97475.86
2023-02-18T18:02:48.714Z,97473.86
2023-02-18T18:05:30.234Z,97482.17
2023-02-18T18:07:56.759Z,97484.09
2023-02-18T18:10:25.161Z,97494.21
2023-02-18T18:12:51.785Z,97498.66
2023-02-18T18:15:31.935Z,97497.61
2023-02-18T18:17:58.986Z,97503.08
2023-02-18T18:20:27.040Z,97498.13
2023-02-18T18:22:56.157Z,97499.39
2023-02-18T18:25:45.235Z,97499.05
2023-02-18T18:28:12.289Z,97508.92
2023-02-18T18:30:42.073Z,97509.32
2023-02-18T18:33:24.067Z,97507.11
2023-02-18T18:35:52.846Z,97505.87
2023-02-18T18:38:20.869Z,97500.53
2023-02-18T18:40:48.451Z,97494.30
2023-02-18T18:43:19.902Z,97488.09
2023-02-18T18:45:47.509Z,97491.90
2023-02-18T18:48:15.129Z,97495.98
2023-02-18T18:50:43.061Z,97498.77
2023-02-18T18:53:22.649Z,97502.98
2023-02-18T18:55:51.735Z,97505.44
2023-02-18T18:58:18.533Z,97513.20
2023-02-18T19:00:44.999Z,97519.36
2023-02-18T19:03:12.921Z,97515.52
2023-02-18T19:05:43.816Z,97514.11
2023-02-18T19:08:15.106Z,97519.78
2023-02-18T19:10:42.786Z,97513.17
2023-02-18T19:13:17.285Z,97515.66
2023-02-18T19:15:44.484Z,97514.13
2023-02-18T19:18:19.715Z,97511.90
2023-02-18T19:20:47.018Z,97517.58
2023-02-18T19:23:14.519Z,97523.02
2023-02-18T19:25:41.560Z,97531.95
2023-02-18T19:28:08.757Z,97525.09
2023-02-18T19:30:37.228Z,97526.86
2023-02-18T19:33:05.702Z,97543.14
2023-02-18T19:35:32.976Z,97540.13
2023-02-18T19:38:00.412Z,97549.20
2023-02-18T19:40:30.444Z,97562.60
2023-02-18T19:42:57.376Z,97572.30
2023-02-18T19:45:24.754Z,97572.81
2023-02-18T19:47:56.296Z,97576.45
2023-02-18T19:50:24.153Z,97574.95
2023-02-18T19:52:55.509Z,97567.83
2023-02-18T19:55:22.755Z,97557.02
2023-02-18T19:57:50.750Z,97558.16
2023-02-18T20:00:20.466Z,97564.63
2023-02-18T20:02:47.144Z,97573.52
2023-02-18T20:05:14.637Z,97578.20
2023-02-18T20:07:41.901Z,97584.77
2023-02-18T20:10:12.496Z,97591.50
2023-02-18T20:12:39.098Z,97605.38
2023-02-18T20:15:06.335Z,97601.64
2023-02-18T20:17:33.316Z,97600.98
2023-02-18T20:19:59.960Z,97595.52
2023-02-18T20:22:26.591Z,97595.82
2023-02-18T20:24:53.135Z,97586.63
2023-02-18T20:27:19.931Z,97593.00
2023-02-18T20:29:46.464Z,97597.87
2023-02-18T20:32:13.092Z,97596.77
2023-02-18T20:34:39.661Z,97606.60
2023-02-18T20:37:06.121Z,97613.83
2023-02-18T20:39:32.773Z,97603.61
2023-02-18T20:42:02.888Z,97604.86
2023-02-18T20:44:32.209Z,97615.23
2023-02-18T20:46:58.728Z,97610.44
2023-02-18T20:49:25.183Z,97609.19
2023-02-18T20:51:51.722Z,97611.14
2023-02-18T20:54:19.541Z,97615.22
2023-02-18T20:56:48.974Z,97620.32
2023-02-18T20:59:18.180Z,97622.48
2023-02-18T21:01:45.988Z,97629.69
2023-02-18T21:04:15.442Z,97634.20
2023-02-18T21:06:42.219Z,97634.52
2023-02-18T21:09:08.759Z,97629.69
2023-02-18T21:11:35.398Z,97632.59
2023-02-18T21:14:01.940Z,97626.23
2023-02-18T21:16:29.691Z,97626.13
2023-02-18T21:18:56.184Z,97625.34
2023-02-18T21:21:22.823Z,97629.96
2023-02-18T21:23:50.143Z,97634.58
2023-02-18T21:26:20.588Z,97634.64
2023-02-18T21:28:49.894Z,97639.61
2023-02-18T21:31:20.032Z,97651.00
2023-02-18T21:33:47.230Z,97652.80
2023-02-18T21:36:14.728Z,97657.72
2023-02-18T21:38:42.072Z,97655.23
2023-02-18T21:41:08.993Z,97659.17
2023-02-18T21:43:35.774Z,97662.96
2023-02-18T21:46:24.110Z,97658.44
2023-02-18T21:48:51.299Z,97668.09
2023-02-18T21:51:18.015Z,97664.36
2023-02-18T21:53:44.758Z,97672.90
2023-02-18T21:56:12.113Z,97682.95
2023-02-18T21:58:38.611Z,97682.34
2023-02-18T22:01:05.624Z,97691.26
2023-02-18T22:03:32.782Z,97704.51
2023-02-18T22:05:59.394Z,97715.05
2023-02-18T22:08:25.911Z,97724.48
2023-02-18T22:10:52.393Z,97740.71
2023-02-18T22:13:18.914Z,97753.41
2023-02-18T22:15:45.460Z,97752.97
2023-02-18T22:18:11.971Z,97749.61
2023-02-18T22:20:38.788Z,97755.48
2023-02-18T22:23:05.337Z,97755.36
2023-02-18T22:25:31.777Z,97755.25
2023-02-18T22:27:58.192Z,97758.39
2023-02-18T22:30:24.916Z,97762.08
2023-02-18T22:32:51.429Z,97772.09
2023-02-18T22:35:17.976Z,97782.18
2023-02-18T22:37:44.448Z,97787.48
2023-02-18T22:40:11.049Z,97787.92
2023-02-18T22:42:37.682Z,97789.70
2023-02-18T22:45:04.745Z,97796.88
2023-02-18T22:47:31.382Z,97801.97
2023-02-18T22:49:58.036Z,97809.08
2023-02-18T22:52:24.663Z,97815.35
2023-02-18T22:54:51.418Z,97816.09
2023-02-18T22:57:18.837Z,97817.40
2023-02-18T22:59:45.308Z,97821.38
2023-02-18T23:02:12.281Z,97833.85
2023-02-18T23:04:39.833Z,97830.20
2023-02-18T23:07:06.481Z,97837.86
2023-02-18T23:09:33.266Z,97838.88
2023-02-18T23:11:59.762Z,97843.01
2023-02-18T23:14:27.405Z,97841.89
2023-02-18T23:16:56.724Z,97840.16
2023-02-18T23:19:24.916Z,97839.35
2023-02-18T23:21:51.588Z,97842.69
2023-02-18T23:24:18.264Z,97843.71
2023-02-18T23:26:44.728Z,97848.62
2023-02-18T23:29:11.536Z,97855.98
2023-02-18T23:31:38.527Z,97858.00
2023-02-18T23:34:07.226Z,97867.96
2023-02-18T23:36:35.738Z,97876.30
2023-02-18T23:39:06.131Z,97873.98
2023-02-18T23:41:32.564Z,97871.49
2023-02-18T23:43:59.115Z,97878.52
2023-02-18T23:46:26.993Z,97883.23
2023-02-18T23:48:53.920Z,97879.14
2023-02-18T23:51:23.085Z,97881.48
2023-02-18T23:53:50.202Z,97879.63
2023-02-18T23:56:22.579Z,97885.70
2023-02-18T23:58:54.721Z,97884.52
